PWSweather.com
Personal Weather Stations
Station Observations
CALONGE
CalongeES 17251

CalongeES 17251

Lat: 41.85972222, Lon: 3.077777778

Elevation: 16

Station Type: Oregon WMR928N

www.calonge-meteoweb.com

High Low Average
Temperature 78.4°F25.8°C 57.7°F14.3°C 68.7°F20.4°C
Dew Point 59.3°F15.2°C 43.0°F6.1°C 52.5°F11.4°C
Winds 15.5 mph 24.9 kmh Calm Calm 5.0 mph SSE8.0 kmh SSE
Wind Gusts 19.6 mph31.5 kmh -- 9.0 mph14.5 kmh
Humidity 92% 36% 59%
Pressure 30.09 in1019.0 mb 29.92 in1013.2 mb -
Precipitation 0.00 in0.0 mm - -
Hour Temp Dew Point Humidity Winds Wind Gusts Pressure Precip Precip Rate Daily Precip Total
12:00 AM 62.6°F17.0°C 53.4°F11.9°C 72% Calm Calm -- 29.92 in1013.2 mb 0.00 in0.0 mm 0.00 in0.0 mm 0.00 in0.0 mm
12:15 AM 62.2°F16.8°C 54.6°F12.6°C 76% Calm Calm -- 29.92 in1013.2 mb 0.00 in0.0 mm 0.00 in0.0 mm 0.00 in0.0 mm
12:30 AM 61.7°F16.5°C 54.1°F12.3°C 76% Calm Calm -- 29.92 in1013.2 mb 0.00 in0.0 mm 0.00 in0.0 mm 0.00 in0.0 mm
12:45 AM 61.5°F16.4°C 54.2°F12.3°C 77% Calm Calm -- 29.92 in1013.2 mb 0.00 in0.0 mm 0.00 in0.0 mm 0.00 in0.0 mm
01:00 AM 61.3°F16.3°C 54.4°F12.4°C 78% Calm Calm -- 29.92 in1013.2 mb 0.00 in0.0 mm 0.00 in0.0 mm 0.00 in0.0 mm
01:15 AM 61.0°F16.1°C 54.4°F12.4°C 79% Calm Calm -- 29.92 in1013.2 mb 0.00 in0.0 mm 0.00 in0.0 mm 0.00 in0.0 mm
01:30 AM 60.4°F15.8°C 54.9°F12.7°C 82% Calm Calm -- 29.92 in1013.2 mb 0.00 in0.0 mm 0.00 in0.0 mm 0.00 in0.0 mm
01:45 AM 60.4°F15.8°C 55.3°F12.9°C 83% 4.7 mph WNW7.6 kmh WNW 6.4 mph10.3 kmh 29.92 in1013.2 mb 0.00 in0.0 mm 0.00 in0.0 mm 0.00 in0.0 mm
02:00 AM 60.3°F15.7°C 55.1°F12.8°C 83% Calm Calm -- 29.92 in1013.2 mb 0.00 in0.0 mm 0.00 in0.0 mm 0.00 in0.0 mm
02:15 AM 60.4°F15.8°C 55.6°F13.1°C 84% 3.5 mph WNW5.6 kmh WNW 7.0 mph11.3 kmh 29.92 in1013.2 mb 0.00 in0.0 mm 0.00 in0.0 mm 0.00 in0.0 mm
02:30 AM 60.4°F15.8°C 55.6°F13.1°C 84% 5.3 mph W8.5 kmh W 7.0 mph11.3 kmh 29.92 in1013.2 mb 0.00 in0.0 mm 0.00 in0.0 mm 0.00 in0.0 mm
02:45 AM 60.3°F15.7°C 55.4°F13.0°C 84% 4.1 mph W6.6 kmh W 5.3 mph8.5 kmh 29.92 in1013.2 mb 0.00 in0.0 mm 0.00 in0.0 mm 0.00 in0.0 mm
03:00 AM 60.1°F15.6°C 54.9°F12.7°C 83% Calm Calm 5.3 mph8.5 kmh 29.92 in1013.2 mb 0.00 in0.0 mm 0.00 in0.0 mm 0.00 in0.0 mm
03:15 AM 59.9°F15.5°C 54.7°F12.6°C 83% Calm Calm -- 29.92 in1013.2 mb 0.00 in0.0 mm 0.00 in0.0 mm 0.00 in0.0 mm
03:30 AM 60.3°F15.7°C 55.4°F13.0°C 84% Calm Calm 6.4 mph10.3 kmh 29.92 in1013.2 mb 0.00 in0.0 mm 0.00 in0.0 mm 0.00 in0.0 mm
03:45 AM 60.1°F15.6°C 54.9°F12.7°C 83% Calm Calm -- 29.92 in1013.2 mb 0.00 in0.0 mm 0.00 in0.0 mm 0.00 in0.0 mm
04:00 AM 59.9°F15.5°C 54.7°F12.6°C 83% Calm Calm 4.7 mph7.6 kmh 29.92 in1013.2 mb 0.00 in0.0 mm 0.00 in0.0 mm 0.00 in0.0 mm
04:15 AM 59.7°F15.4°C 54.2°F12.3°C 82% Calm Calm -- 29.92 in1013.2 mb 0.00 in0.0 mm 0.00 in0.0 mm 0.00 in0.0 mm
04:30 AM 59.5°F15.3°C 54.4°F12.4°C 83% Calm Calm -- 29.92 in1013.2 mb 0.00 in0.0 mm 0.00 in0.0 mm 0.00 in0.0 mm
04:45 AM 59.4°F15.2°C 54.2°F12.3°C 83% Calm Calm -- 29.92 in1013.2 mb 0.00 in0.0 mm 0.00 in0.0 mm 0.00 in0.0 mm
05:00 AM 58.5°F14.7°C 53.6°F12.0°C 84% Calm Calm -- 29.92 in1013.2 mb 0.00 in0.0 mm 0.00 in0.0 mm 0.00 in0.0 mm
05:15 AM 58.3°F14.6°C 54.1°F12.3°C 86% 2.9 mph WNW4.7 kmh WNW 7.0 mph11.3 kmh 29.92 in1013.2 mb 0.00 in0.0 mm 0.00 in0.0 mm 0.00 in0.0 mm
05:30 AM 57.9°F14.4°C 53.4°F11.9°C 85% Calm Calm -- 29.92 in1013.2 mb 0.00 in0.0 mm 0.00 in0.0 mm 0.00 in0.0 mm
05:45 AM 57.7°F14.3°C 53.3°F11.8°C 85% Calm Calm -- 29.92 in1013.2 mb 0.00 in0.0 mm 0.00 in0.0 mm 0.00 in0.0 mm
06:00 AM 57.9°F14.4°C 54.4°F12.4°C 88% Calm Calm -- 29.95 in1014.2 mb 0.00 in0.0 mm 0.00 in0.0 mm 0.00 in0.0 mm
06:15 AM 58.5°F14.7°C 55.2°F12.9°C 89% 4.7 mph NW7.6 kmh NW 7.6 mph12.2 kmh 29.95 in1014.2 mb 0.00 in0.0 mm 0.00 in0.0 mm 0.00 in0.0 mm
06:30 AM 61.2°F16.2°C 58.8°F14.9°C 92% 2.9 mph NNW4.7 kmh NNW 10.8 mph17.4 kmh 29.95 in1014.2 mb 0.00 in0.0 mm 0.00 in0.0 mm 0.00 in0.0 mm
06:45 AM 63.0°F17.2°C 59.3°F15.2°C 88% 5.9 mph NW9.5 kmh NW 8.8 mph14.2 kmh 29.95 in1014.2 mb 0.00 in0.0 mm 0.00 in0.0 mm 0.00 in0.0 mm
07:00 AM 64.2°F17.9°C 58.9°F14.9°C 83% 4.7 mph W7.6 kmh W 7.0 mph11.3 kmh 29.95 in1014.2 mb 0.00 in0.0 mm 0.00 in0.0 mm 0.00 in0.0 mm
07:15 AM 65.5°F18.6°C 58.4°F14.7°C 78% Calm Calm 7.6 mph12.2 kmh 29.95 in1014.2 mb 0.00 in0.0 mm 0.00 in0.0 mm 0.00 in0.0 mm
07:30 AM 66.4°F19.1°C 57.8°F14.3°C 74% 7.0 mph NW11.3 kmh NW 8.2 mph13.2 kmh 29.98 in1015.2 mb 0.00 in0.0 mm 0.00 in0.0 mm 0.00 in0.0 mm
07:45 AM 67.5°F19.7°C 58.1°F14.5°C 72% 4.7 mph NW7.6 kmh NW 7.0 mph11.3 kmh 29.98 in1015.2 mb 0.00 in0.0 mm 0.00 in0.0 mm 0.00 in0.0 mm
08:00 AM 68.2°F20.1°C 58.4°F14.7°C 71% 3.5 mph NNW5.6 kmh NNW 8.2 mph13.2 kmh 29.98 in1015.2 mb 0.00 in0.0 mm 0.00 in0.0 mm 0.00 in0.0 mm
08:15 AM 69.3°F20.7°C 58.7°F14.8°C 69% 4.7 mph NNE7.6 kmh NNE 6.4 mph10.3 kmh 29.98 in1015.2 mb 0.00 in0.0 mm 0.00 in0.0 mm 0.00 in0.0 mm
08:30 AM 69.8°F21.0°C 58.3°F14.6°C 67% 2.9 mph NE4.7 kmh NE 7.6 mph12.2 kmh 29.98 in1015.2 mb 0.00 in0.0 mm 0.00 in0.0 mm 0.00 in0.0 mm
08:45 AM 70.5°F21.4°C 58.6°F14.8°C 66% 5.9 mph ENE9.5 kmh ENE 11.4 mph18.3 kmh 29.95 in1014.2 mb 0.00 in0.0 mm 0.00 in0.0 mm 0.00 in0.0 mm
09:00 AM 70.3°F21.3°C 58.4°F14.7°C 66% 7.6 mph NE12.2 kmh NE 8.2 mph13.2 kmh 29.98 in1015.2 mb 0.00 in0.0 mm 0.00 in0.0 mm 0.00 in0.0 mm
09:15 AM 70.7°F21.5°C 58.8°F14.9°C 66% 7.0 mph ENE11.3 kmh ENE 10.0 mph16.1 kmh 30.01 in1016.3 mb 0.00 in0.0 mm 0.00 in0.0 mm 0.00 in0.0 mm
09:30 AM 70.7°F21.5°C 57.9°F14.4°C 64% 4.1 mph NE6.6 kmh NE 7.6 mph12.2 kmh 30.01 in1016.3 mb 0.00 in0.0 mm 0.00 in0.0 mm 0.00 in0.0 mm
09:45 AM 70.7°F21.5°C 57.9°F14.4°C 64% 5.9 mph NE9.5 kmh NE 7.6 mph12.2 kmh 30.01 in1016.3 mb 0.00 in0.0 mm 0.00 in0.0 mm 0.00 in0.0 mm
10:00 AM 70.5°F21.4°C 57.8°F14.3°C 64% Calm Calm 7.6 mph12.2 kmh 30.01 in1016.3 mb 0.00 in0.0 mm 0.00 in0.0 mm 0.00 in0.0 mm
10:15 AM 70.5°F21.4°C 57.3°F14.1°C 63% 5.3 mph NE8.5 kmh NE 8.2 mph13.2 kmh 30.01 in1016.3 mb 0.00 in0.0 mm 0.00 in0.0 mm 0.00 in0.0 mm
10:30 AM 70.5°F21.4°C 57.3°F14.1°C 63% 7.6 mph E12.2 kmh E 13.2 mph21.2 kmh 30.01 in1016.3 mb 0.00 in0.0 mm 0.00 in0.0 mm 0.00 in0.0 mm
10:45 AM 71.1°F21.7°C 57.8°F14.3°C 63% 5.9 mph ENE9.5 kmh ENE 10.8 mph17.4 kmh 30.01 in1016.3 mb 0.00 in0.0 mm 0.00 in0.0 mm 0.00 in0.0 mm
11:00 AM 71.4°F21.9°C 58.6°F14.8°C 64% 6.4 mph E10.3 kmh E 11.4 mph18.3 kmh 30.01 in1016.3 mb 0.00 in0.0 mm 0.00 in0.0 mm 0.00 in0.0 mm
11:15 AM 71.8°F22.1°C 58.1°F14.5°C 62% 5.9 mph E9.5 kmh E 10.8 mph17.4 kmh 30.01 in1016.3 mb 0.00 in0.0 mm 0.00 in0.0 mm 0.00 in0.0 mm
11:30 AM 72.9°F22.7°C 59.1°F15.1°C 62% 8.2 mph E13.2 kmh E 10.0 mph16.1 kmh 30.01 in1016.3 mb 0.00 in0.0 mm 0.00 in0.0 mm 0.00 in0.0 mm
11:45 AM 73.0°F22.8°C 57.4°F14.1°C 58% 11.4 mph SE18.3 kmh SE 15.5 mph24.9 kmh 30.01 in1016.3 mb 0.00 in0.0 mm 0.00 in0.0 mm 0.00 in0.0 mm
12:00 PM 73.4°F23.0°C 57.7°F14.3°C 58% 12.6 mph ESE20.3 kmh ESE 14.4 mph23.2 kmh 30.01 in1016.3 mb 0.00 in0.0 mm 0.00 in0.0 mm 0.00 in0.0 mm
12:15 PM 73.8°F23.2°C 55.6°F13.1°C 53% 12.0 mph SE19.3 kmh SE 13.8 mph22.2 kmh 30.01 in1016.3 mb 0.00 in0.0 mm 0.00 in0.0 mm 0.00 in0.0 mm
12:30 PM 74.5°F23.6°C 56.7°F13.7°C 54% 7.6 mph SE12.2 kmh SE 13.2 mph21.2 kmh 30.01 in1016.3 mb 0.00 in0.0 mm 0.00 in0.0 mm 0.00 in0.0 mm
12:45 PM 75.0°F23.9°C 54.6°F12.6°C 49% 12.0 mph SE19.3 kmh SE 13.2 mph21.2 kmh 30.01 in1016.3 mb 0.00 in0.0 mm 0.00 in0.0 mm 0.00 in0.0 mm
01:00 PM 74.8°F23.8°C 53.3°F11.8°C 47% 8.8 mph SE14.2 kmh SE 17.9 mph28.8 kmh 30.01 in1016.3 mb 0.00 in0.0 mm 0.00 in0.0 mm 0.00 in0.0 mm
01:15 PM 76.1°F24.5°C 53.8°F12.1°C 46% 8.8 mph SE14.2 kmh SE 19.6 mph31.5 kmh 29.98 in1015.2 mb 0.00 in0.0 mm 0.00 in0.0 mm 0.00 in0.0 mm
01:30 PM 76.3°F24.6°C 54.0°F12.2°C 46% 10.8 mph ESE17.4 kmh ESE 11.4 mph18.3 kmh 29.98 in1015.2 mb 0.00 in0.0 mm 0.00 in0.0 mm 0.00 in0.0 mm
01:45 PM 76.6°F24.8°C 54.3°F12.4°C 46% 11.4 mph E18.3 kmh E 14.4 mph23.2 kmh 29.98 in1015.2 mb 0.00 in0.0 mm 0.00 in0.0 mm 0.00 in0.0 mm
02:00 PM 77.0°F25.0°C 52.8°F11.6°C 43% 12.6 mph E20.3 kmh E 17.9 mph28.8 kmh 29.98 in1015.2 mb 0.00 in0.0 mm 0.00 in0.0 mm 0.00 in0.0 mm
02:15 PM 77.5°F25.3°C 52.0°F11.1°C 41% 10.0 mph E16.1 kmh E 14.4 mph23.2 kmh 29.98 in1015.2 mb 0.00 in0.0 mm 0.00 in0.0 mm 0.00 in0.0 mm
02:30 PM 77.9°F25.5°C 52.3°F11.3°C 41% 8.8 mph E14.2 kmh E 17.3 mph27.8 kmh 29.98 in1015.2 mb 0.00 in0.0 mm 0.00 in0.0 mm 0.00 in0.0 mm
02:45 PM 78.3°F25.7°C 51.3°F10.7°C 39% 10.0 mph E16.1 kmh E 14.4 mph23.2 kmh 29.98 in1015.2 mb 0.00 in0.0 mm 0.00 in0.0 mm 0.00 in0.0 mm
03:00 PM 78.1°F25.6°C 51.8°F11.0°C 40% 9.4 mph E15.1 kmh E 16.7 mph26.9 kmh 29.98 in1015.2 mb 0.00 in0.0 mm 0.00 in0.0 mm 0.00 in0.0 mm
03:15 PM 78.4°F25.8°C 50.0°F10.0°C 37% 2.9 mph E4.7 kmh E 13.2 mph21.2 kmh 29.98 in1015.2 mb 0.00 in0.0 mm 0.00 in0.0 mm 0.00 in0.0 mm
03:30 PM 78.3°F25.7°C 52.0°F11.1°C 40% 12.6 mph E20.3 kmh E 17.3 mph27.8 kmh 29.98 in1015.2 mb 0.00 in0.0 mm 0.00 in0.0 mm 0.00 in0.0 mm
03:45 PM 78.1°F25.6°C 51.1°F10.6°C 39% 15.5 mph E24.9 kmh E 18.5 mph29.8 kmh 29.98 in1015.2 mb 0.00 in0.0 mm 0.00 in0.0 mm 0.00 in0.0 mm
04:00 PM 77.2°F25.1°C 51.7°F10.9°C 41% 12.0 mph E19.3 kmh E 14.4 mph23.2 kmh 30.01 in1016.3 mb 0.00 in0.0 mm 0.00 in0.0 mm 0.00 in0.0 mm
04:15 PM 77.0°F25.0°C 52.8°F11.6°C 43% 12.0 mph SE19.3 kmh SE 16.1 mph25.9 kmh 30.01 in1016.3 mb 0.00 in0.0 mm 0.00 in0.0 mm 0.00 in0.0 mm
04:30 PM 75.7°F24.3°C 52.9°F11.6°C 45% 11.4 mph SE18.3 kmh SE 14.4 mph23.2 kmh 30.01 in1016.3 mb 0.00 in0.0 mm 0.00 in0.0 mm 0.00 in0.0 mm
04:45 PM 75.0°F23.9°C 52.2°F11.2°C 45% 10.5 mph ESE16.9 kmh ESE 14.9 mph24.0 kmh 29.98 in1015.2 mb 0.00 in0.0 mm 0.00 in0.0 mm 0.00 in0.0 mm
05:00 PM 75.9°F24.4°C 50.5°F10.3°C 41% 7.6 mph E12.2 kmh E 10.8 mph17.4 kmh 30.01 in1016.3 mb 0.00 in0.0 mm 0.00 in0.0 mm 0.00 in0.0 mm
05:15 PM 76.5°F24.7°C 49.0°F9.4°C 38% 4.7 mph ENE7.6 kmh ENE 10.8 mph17.4 kmh 29.98 in1015.2 mb 0.00 in0.0 mm 0.00 in0.0 mm 0.00 in0.0 mm
05:30 PM 76.5°F24.7°C 49.0°F9.4°C 38% 5.3 mph E8.5 kmh E 10.8 mph17.4 kmh 30.01 in1016.3 mb 0.00 in0.0 mm 0.00 in0.0 mm 0.00 in0.0 mm
05:45 PM 76.6°F24.8°C 49.1°F9.5°C 38% 7.0 mph NE11.3 kmh NE 8.2 mph13.2 kmh 30.01 in1016.3 mb 0.00 in0.0 mm 0.00 in0.0 mm 0.00 in0.0 mm
06:00 PM 76.5°F24.7°C 48.2°F9.0°C 37% 6.4 mph ENE10.3 kmh ENE 10.0 mph16.1 kmh 30.01 in1016.3 mb 0.00 in0.0 mm 0.00 in0.0 mm 0.00 in0.0 mm
06:15 PM 75.2°F24.0°C 47.8°F8.8°C 38% 5.3 mph NE8.5 kmh NE 8.2 mph13.2 kmh 30.01 in1016.3 mb 0.00 in0.0 mm 0.00 in0.0 mm 0.00 in0.0 mm
06:30 PM 74.8°F23.8°C 48.2°F9.0°C 39% 4.7 mph NE7.6 kmh NE 7.0 mph11.3 kmh 30.01 in1016.3 mb 0.00 in0.0 mm 0.00 in0.0 mm 0.00 in0.0 mm
06:45 PM 74.1°F23.4°C 48.9°F9.4°C 41% 4.1 mph NE6.6 kmh NE 7.0 mph11.3 kmh 30.01 in1016.3 mb 0.00 in0.0 mm 0.00 in0.0 mm 0.00 in0.0 mm
07:00 PM 73.8°F23.2°C 45.9°F7.7°C 37% Calm Calm 3.5 mph5.6 kmh 30.01 in1016.3 mb 0.00 in0.0 mm 0.00 in0.0 mm 0.00 in0.0 mm
07:15 PM 73.4°F23.0°C 44.8°F7.1°C 36% Calm Calm 5.3 mph8.5 kmh 30.01 in1016.3 mb 0.00 in0.0 mm 0.00 in0.0 mm 0.00 in0.0 mm
07:30 PM 72.9°F22.7°C 45.1°F7.3°C 37% 4.7 mph NW7.6 kmh NW 5.3 mph8.5 kmh 30.04 in1017.3 mb 0.00 in0.0 mm 0.00 in0.0 mm 0.00 in0.0 mm
07:45 PM 72.7°F22.6°C 44.9°F7.2°C 37% 4.1 mph NW6.6 kmh NW 6.4 mph10.3 kmh 30.04 in1017.3 mb 0.00 in0.0 mm 0.00 in0.0 mm 0.00 in0.0 mm
08:00 PM 71.8°F22.1°C 44.8°F7.1°C 38% Calm Calm 7.6 mph12.2 kmh 30.04 in1017.3 mb 0.00 in0.0 mm 0.00 in0.0 mm 0.00 in0.0 mm
08:15 PM 71.1°F21.7°C 44.8°F7.1°C 39% Calm Calm 5.9 mph9.5 kmh 30.04 in1017.3 mb 0.00 in0.0 mm 0.00 in0.0 mm 0.00 in0.0 mm
08:30 PM 70.3°F21.3°C 44.9°F7.2°C 40% 7.0 mph NNW11.3 kmh NNW 10.0 mph16.1 kmh 30.04 in1017.3 mb 0.00 in0.0 mm 0.00 in0.0 mm 0.00 in0.0 mm
08:45 PM 69.6°F20.9°C 45.5°F7.5°C 42% 7.6 mph NW12.2 kmh NW 10.8 mph17.4 kmh 30.04 in1017.3 mb 0.00 in0.0 mm 0.00 in0.0 mm 0.00 in0.0 mm
09:00 PM 68.9°F20.5°C 44.9°F7.2°C 42% 8.2 mph NW13.2 kmh NW 14.4 mph23.2 kmh 30.04 in1017.3 mb 0.00 in0.0 mm 0.00 in0.0 mm 0.00 in0.0 mm
09:15 PM 68.4°F20.2°C 44.4°F6.9°C 42% 7.6 mph NW12.2 kmh NW 13.2 mph21.2 kmh 30.07 in1018.3 mb 0.00 in0.0 mm 0.00 in0.0 mm 0.00 in0.0 mm
09:30 PM 68.0°F20.0°C 44.0°F6.7°C 42% 10.0 mph NW16.1 kmh NW 13.2 mph21.2 kmh 30.07 in1018.3 mb 0.00 in0.0 mm 0.00 in0.0 mm 0.00 in0.0 mm
09:45 PM 67.6°F19.8°C 44.3°F6.8°C 43% 7.0 mph NW11.3 kmh NW 10.8 mph17.4 kmh 30.07 in1018.3 mb 0.00 in0.0 mm 0.00 in0.0 mm 0.00 in0.0 mm
10:00 PM 67.3°F19.6°C 44.0°F6.7°C 43% 8.8 mph NW14.2 kmh NW 10.0 mph16.1 kmh 30.07 in1018.3 mb 0.00 in0.0 mm 0.00 in0.0 mm 0.00 in0.0 mm
10:15 PM 67.1°F19.5°C 43.8°F6.6°C 43% 8.2 mph WNW13.2 kmh WNW 10.0 mph16.1 kmh 30.07 in1018.3 mb 0.00 in0.0 mm 0.00 in0.0 mm 0.00 in0.0 mm
10:30 PM 66.9°F19.4°C 43.7°F6.5°C 43% 7.0 mph WNW11.3 kmh WNW 10.5 mph16.9 kmh 30.09 in1019.0 mb 0.00 in0.0 mm 0.00 in0.0 mm 0.00 in0.0 mm
10:45 PM 66.7°F19.3°C 43.5°F6.4°C 43% 9.4 mph NW15.1 kmh NW 10.8 mph17.4 kmh 30.09 in1019.0 mb 0.00 in0.0 mm 0.00 in0.0 mm 0.00 in0.0 mm
11:00 PM 66.6°F19.2°C 43.4°F6.3°C 43% 4.7 mph NW7.6 kmh NW 7.6 mph12.2 kmh 30.09 in1019.0 mb 0.00 in0.0 mm 0.00 in0.0 mm 0.00 in0.0 mm
11:15 PM 66.6°F19.2°C 43.4°F6.3°C 43% 5.3 mph NW8.5 kmh NW 10.8 mph17.4 kmh 30.09 in1019.0 mb 0.00 in0.0 mm 0.00 in0.0 mm 0.00 in0.0 mm
11:30 PM 66.4°F19.1°C 43.2°F6.2°C 43% 5.9 mph NW9.5 kmh NW 7.6 mph12.2 kmh 30.09 in1019.0 mb 0.00 in0.0 mm 0.00 in0.0 mm 0.00 in0.0 mm
11:45 PM 66.2°F19.0°C 43.0°F6.1°C 43% 7.0 mph NW11.3 kmh NW 10.8 mph17.4 kmh 30.09 in1019.0 mb 0.00 in0.0 mm 0.00 in0.0 mm 0.00 in0.0 mm